Bijie, China
Current Conditions -  °F | °C
As of 1:00 PM on Thursday 27 Nov 2014 (Local Time) from ZUGY Reporting Station
Scattered Clouds Scattered Clouds  
Wind Chill: 70°   Ceiling: Unl
Heat Index: 70°   Visibility: 6mi
Dew Point: 55°   Wind: 9mph
Humidity: 60%   Direction: 210°SSW
Pressure: 29.88"   Gusts: NA
Location:  27.31°N, 105.28°E
Report Text: ZUGY 270500Z 21004MPS 9999 SCT033 21/13 Q1012 NOSIG
Loading
Personal Weather Stations






























Interactive Weather Map New forecast layout! Learn more

10-Day Weather Forecast

Advertisements
Track Severe Weather on mobile